sensor_id;sensor_type;location;lat;lon;timestamp;P1;durP1;ratioP1;P2;durP2;ratioP2
77798;SDS011;66989;50.426;15.352;2023-02-21T00:00:03;4.45;;;1.92;;
77798;SDS011;66989;50.426;15.352;2023-02-21T00:02:48;5.40;;;1.20;;
77798;SDS011;66989;50.426;15.352;2023-02-21T00:05:32;3.88;;;1.10;;
77798;SDS011;66989;50.426;15.352;2023-02-21T00:08:15;2.72;;;1.27;;
77798;SDS011;66989;50.426;15.352;2023-02-21T00:10:59;3.85;;;1.33;;
77798;SDS011;66989;50.426;15.352;2023-02-21T00:13:43;3.40;;;1.30;;
77798;SDS011;66989;50.426;15.352;2023-02-21T00:16:27;2.92;;;1.13;;
77798;SDS011;66989;50.426;15.352;2023-02-21T00:19:11;4.53;;;1.83;;
77798;SDS011;66989;50.426;15.352;2023-02-21T00:21:55;4.32;;;1.15;;
77798;SDS011;66989;50.426;15.352;2023-02-21T00:24:39;4.03;;;1.50;;
77798;SDS011;66989;50.426;15.352;2023-02-21T00:27:23;3.67;;;1.88;;
77798;SDS011;66989;50.426;15.352;2023-02-21T00:30:08;3.25;;;1.33;;
77798;SDS011;66989;50.426;15.352;2023-02-21T00:32:53;2.38;;;1.25;;
77798;SDS011;66989;50.426;15.352;2023-02-21T00:35:37;2.33;;;1.05;;
77798;SDS011;66989;50.426;15.352;2023-02-21T00:38:22;5.38;;;1.15;;
77798;SDS011;66989;50.426;15.352;2023-02-21T00:41:05;3.50;;;1.83;;
77798;SDS011;66989;50.426;15.352;2023-02-21T00:43:50;5.03;;;1.75;;
77798;SDS011;66989;50.426;15.352;2023-02-21T00:46:34;2.33;;;1.00;;
77798;SDS011;66989;50.426;15.352;2023-02-21T00:49:18;3.28;;;1.52;;
77798;SDS011;66989;50.426;15.352;2023-02-21T00:52:02;5.65;;;2.63;;
77798;SDS011;66989;50.426;15.352;2023-02-21T00:54:47;3.53;;;1.05;;
77798;SDS011;66989;50.426;15.352;2023-02-21T00:57:30;3.55;;;1.75;;
77798;SDS011;66989;50.426;15.352;2023-02-21T01:00:16;4.47;;;1.95;;
77798;SDS011;66989;50.426;15.352;2023-02-21T01:03:02;3.90;;;1.63;;
77798;SDS011;66989;50.426;15.352;2023-02-21T01:05:46;5.00;;;1.73;;
77798;SDS011;66989;50.426;15.352;2023-02-21T01:08:30;6.28;;;1.67;;
77798;SDS011;66989;50.426;15.352;2023-02-21T01:11:15;3.92;;;1.70;;
77798;SDS011;66989;50.426;15.352;2023-02-21T01:14:01;3.63;;;1.33;;
77798;SDS011;66989;50.426;15.352;2023-02-21T01:16:45;4.72;;;1.88;;
77798;SDS011;66989;50.426;15.352;2023-02-21T01:19:29;4.78;;;1.73;;
77798;SDS011;66989;50.426;15.352;2023-02-21T01:22:13;6.95;;;3.42;;
77798;SDS011;66989;50.426;15.352;2023-02-21T01:24:58;4.90;;;1.67;;
77798;SDS011;66989;50.426;15.352;2023-02-21T01:27:42;4.57;;;1.63;;
77798;SDS011;66989;50.426;15.352;2023-02-21T01:30:26;4.57;;;1.98;;
77798;SDS011;66989;50.426;15.352;2023-02-21T01:33:10;3.72;;;1.30;;
77798;SDS011;66989;50.426;15.352;2023-02-21T01:35:54;3.72;;;1.77;;
77798;SDS011;66989;50.426;15.352;2023-02-21T01:38:38;5.18;;;1.65;;
77798;SDS011;66989;50.426;15.352;2023-02-21T01:41:22;3.97;;;1.95;;
77798;SDS011;66989;50.426;15.352;2023-02-21T01:44:20;4.55;;;1.55;;
77798;SDS011;66989;50.426;15.352;2023-02-21T01:47:19;4.28;;;1.33;;
77798;SDS011;66989;50.426;15.352;2023-02-21T01:50:12;4.32;;;1.80;;
77798;SDS011;66989;50.426;15.352;2023-02-21T01:53:05;2.58;;;1.40;;
77798;SDS011;66989;50.426;15.352;2023-02-21T01:55:52;6.00;;;1.88;;
77798;SDS011;66989;50.426;15.352;2023-02-21T01:58:38;3.85;;;2.22;;
77798;SDS011;66989;50.426;15.352;2023-02-21T02:01:35;5.97;;;2.40;;
77798;SDS011;66989;50.426;15.352;2023-02-21T02:04:23;5.20;;;2.45;;
77798;SDS011;66989;50.426;15.352;2023-02-21T02:07:07;7.40;;;2.45;;
77798;SDS011;66989;50.426;15.352;2023-02-21T02:09:52;4.22;;;1.80;;
77798;SDS011;66989;50.426;15.352;2023-02-21T02:12:43;4.97;;;1.65;;
77798;SDS011;66989;50.426;15.352;2023-02-21T02:36:46;4.65;;;1.88;;
77798;SDS011;66989;50.426;15.352;2023-02-21T02:44:38;6.13;;;2.58;;
77798;SDS011;66989;50.426;15.352;2023-02-21T02:47:06;3.45;;;1.58;;
77798;SDS011;66989;50.426;15.352;2023-02-21T02:49:39;4.07;;;1.55;;
77798;SDS011;66989;50.426;15.352;2023-02-21T02:52:07;4.82;;;1.98;;
77798;SDS011;66989;50.426;15.352;2023-02-21T02:54:33;4.25;;;1.63;;
77798;SDS011;66989;50.426;15.352;2023-02-21T02:57:00;2.72;;;1.20;;
77798;SDS011;66989;50.426;15.352;2023-02-21T02:59:29;2.72;;;0.93;;
77798;SDS011;66989;50.426;15.352;2023-02-21T03:07:38;3.75;;;1.38;;
77798;SDS011;66989;50.426;15.352;2023-02-21T03:16:17;3.10;;;1.35;;
77798;SDS011;66989;50.426;15.352;2023-02-21T03:18:50;4.60;;;1.83;;
77798;SDS011;66989;50.426;15.352;2023-02-21T03:21:21;5.15;;;1.30;;
77798;SDS011;66989;50.426;15.352;2023-02-21T03:23:52;4.32;;;1.73;;
77798;SDS011;66989;50.426;15.352;2023-02-21T03:26:21;3.40;;;1.60;;
77798;SDS011;66989;50.426;15.352;2023-02-21T03:28:46;4.63;;;1.60;;
77798;SDS011;66989;50.426;15.352;2023-02-21T03:31:14;5.75;;;1.40;;
77798;SDS011;66989;50.426;15.352;2023-02-21T03:33:41;3.28;;;1.40;;
77798;SDS011;66989;50.426;15.352;2023-02-21T03:36:08;4.97;;;1.83;;
77798;SDS011;66989;50.426;15.352;2023-02-21T03:38:34;3.42;;;1.65;;
77798;SDS011;66989;50.426;15.352;2023-02-21T03:41:00;2.75;;;1.52;;
77798;SDS011;66989;50.426;15.352;2023-02-21T03:43:25;4.35;;;1.25;;
77798;SDS011;66989;50.426;15.352;2023-02-21T03:45:51;2.85;;;1.33;;
77798;SDS011;66989;50.426;15.352;2023-02-21T03:48:16;3.53;;;1.20;;
77798;SDS011;66989;50.426;15.352;2023-02-21T03:50:41;3.38;;;0.95;;
77798;SDS011;66989;50.426;15.352;2023-02-21T03:53:08;3.60;;;1.07;;
77798;SDS011;66989;50.426;15.352;2023-02-21T03:57:59;4.77;;;1.73;;
77798;SDS011;66989;50.426;15.352;2023-02-21T04:00:24;1.97;;;0.77;;
77798;SDS011;66989;50.426;15.352;2023-02-21T04:02:50;3.40;;;0.90;;
77798;SDS011;66989;50.426;15.352;2023-02-21T04:05:18;2.17;;;0.95;;
77798;SDS011;66989;50.426;15.352;2023-02-21T04:07:43;1.23;;;0.50;;
77798;SDS011;66989;50.426;15.352;2023-02-21T04:10:08;2.08;;;0.57;;
77798;SDS011;66989;50.426;15.352;2023-02-21T04:12:34;3.17;;;1.25;;
77798;SDS011;66989;50.426;15.352;2023-02-21T04:14:59;2.35;;;0.40;;
77798;SDS011;66989;50.426;15.352;2023-02-21T04:17:25;2.45;;;1.05;;
77798;SDS011;66989;50.426;15.352;2023-02-21T04:19:50;2.75;;;0.80;;
77798;SDS011;66989;50.426;15.352;2023-02-21T04:22:16;2.58;;;0.80;;
77798;SDS011;66989;50.426;15.352;2023-02-21T04:24:41;2.50;;;0.93;;
77798;SDS011;66989;50.426;15.352;2023-02-21T04:27:07;3.83;;;1.23;;
77798;SDS011;66989;50.426;15.352;2023-02-21T04:29:32;2.53;;;0.85;;
77798;SDS011;66989;50.426;15.352;2023-02-21T04:31:58;3.63;;;2.03;;
77798;SDS011;66989;50.426;15.352;2023-02-21T04:34:23;3.17;;;1.20;;
77798;SDS011;66989;50.426;15.352;2023-02-21T04:36:49;3.08;;;1.13;;
77798;SDS011;66989;50.426;15.352;2023-02-21T04:39:14;3.22;;;0.90;;
77798;SDS011;66989;50.426;15.352;2023-02-21T04:41:40;2.88;;;1.42;;
77798;SDS011;66989;50.426;15.352;2023-02-21T04:44:05;1.88;;;0.70;;
77798;SDS011;66989;50.426;15.352;2023-02-21T04:46:31;3.42;;;1.42;;
77798;SDS011;66989;50.426;15.352;2023-02-21T04:48:57;4.13;;;0.90;;
77798;SDS011;66989;50.426;15.352;2023-02-21T04:51:22;4.32;;;0.73;;
77798;SDS011;66989;50.426;15.352;2023-02-21T04:53:49;2.42;;;0.82;;
77798;SDS011;66989;50.426;15.352;2023-02-21T04:56:19;3.40;;;0.68;;
77798;SDS011;66989;50.426;15.352;2023-02-21T04:58:47;1.90;;;0.82;;
77798;SDS011;66989;50.426;15.352;2023-02-21T05:01:13;2.15;;;0.90;;
77798;SDS011;66989;50.426;15.352;2023-02-21T05:06:05;2.57;;;0.53;;
77798;SDS011;66989;50.426;15.352;2023-02-21T05:08:30;2.35;;;0.93;;
77798;SDS011;66989;50.426;15.352;2023-02-21T05:10:56;3.33;;;2.10;;
77798;SDS011;66989;50.426;15.352;2023-02-21T05:13:21;4.20;;;1.23;;
77798;SDS011;66989;50.426;15.352;2023-02-21T05:15:47;3.25;;;1.15;;
77798;SDS011;66989;50.426;15.352;2023-02-21T05:18:13;2.42;;;0.90;;
77798;SDS011;66989;50.426;15.352;2023-02-21T05:20:38;3.08;;;1.75;;
77798;SDS011;66989;50.426;15.352;2023-02-21T05:23:04;2.42;;;1.27;;
77798;SDS011;66989;50.426;15.352;2023-02-21T05:25:29;4.25;;;1.65;;
77798;SDS011;66989;50.426;15.352;2023-02-21T05:27:54;2.92;;;1.48;;
77798;SDS011;66989;50.426;15.352;2023-02-21T05:30:20;2.53;;;0.93;;
77798;SDS011;66989;50.426;15.352;2023-02-21T05:32:48;2.78;;;1.02;;
77798;SDS011;66989;50.426;15.352;2023-02-21T05:35:13;1.67;;;0.90;;
77798;SDS011;66989;50.426;15.352;2023-02-21T05:37:40;2.03;;;0.68;;
77798;SDS011;66989;50.426;15.352;2023-02-21T05:40:05;4.45;;;1.63;;
77798;SDS011;66989;50.426;15.352;2023-02-21T05:42:31;3.60;;;0.88;;
77798;SDS011;66989;50.426;15.352;2023-02-21T05:44:57;3.25;;;2.10;;
77798;SDS011;66989;50.426;15.352;2023-02-21T05:47:22;2.88;;;1.48;;
77798;SDS011;66989;50.426;15.352;2023-02-21T05:49:48;4.22;;;2.30;;
77798;SDS011;66989;50.426;15.352;2023-02-21T05:52:14;2.55;;;0.93;;
77798;SDS011;66989;50.426;15.352;2023-02-21T05:54:40;2.00;;;0.90;;
77798;SDS011;66989;50.426;15.352;2023-02-21T05:57:05;2.42;;;1.80;;
77798;SDS011;66989;50.426;15.352;2023-02-21T05:59:31;2.78;;;1.00;;
77798;SDS011;66989;50.426;15.352;2023-02-21T06:01:56;3.10;;;1.52;;
77798;SDS011;66989;50.426;15.352;2023-02-21T06:04:22;2.92;;;1.65;;
77798;SDS011;66989;50.426;15.352;2023-02-21T06:06:48;3.67;;;1.33;;
77798;SDS011;66989;50.426;15.352;2023-02-21T06:09:14;3.70;;;1.20;;
77798;SDS011;66989;50.426;15.352;2023-02-21T06:11:40;2.42;;;1.52;;
77798;SDS011;66989;50.426;15.352;2023-02-21T06:14:07;2.67;;;0.95;;
77798;SDS011;66989;50.426;15.352;2023-02-21T06:16:38;2.83;;;1.25;;
77798;SDS011;66989;50.426;15.352;2023-02-21T06:19:05;4.07;;;1.60;;
77798;SDS011;66989;50.426;15.352;2023-02-21T06:21:32;1.95;;;0.93;;
77798;SDS011;66989;50.426;15.352;2023-02-21T06:23:59;3.55;;;1.02;;
77798;SDS011;66989;50.426;15.352;2023-02-21T06:26:25;2.50;;;0.90;;
77798;SDS011;66989;50.426;15.352;2023-02-21T06:28:51;4.15;;;1.30;;
77798;SDS011;66989;50.426;15.352;2023-02-21T06:31:17;2.85;;;1.42;;
77798;SDS011;66989;50.426;15.352;2023-02-21T06:33:44;2.88;;;0.85;;
77798;SDS011;66989;50.426;15.352;2023-02-21T06:36:11;4.25;;;1.38;;
77798;SDS011;66989;50.426;15.352;2023-02-21T06:38:38;2.35;;;1.45;;
77798;SDS011;66989;50.426;15.352;2023-02-21T06:41:05;2.78;;;0.85;;
77798;SDS011;66989;50.426;15.352;2023-02-21T06:43:33;5.53;;;1.85;;
77798;SDS011;66989;50.426;15.352;2023-02-21T06:46:00;4.28;;;1.10;;
77798;SDS011;66989;50.426;15.352;2023-02-21T06:48:26;2.28;;;1.30;;
77798;SDS011;66989;50.426;15.352;2023-02-21T06:50:52;4.00;;;1.85;;
77798;SDS011;66989;50.426;15.352;2023-02-21T06:53:17;8.05;;;1.65;;
77798;SDS011;66989;50.426;15.352;2023-02-21T06:55:43;4.47;;;1.00;;
77798;SDS011;66989;50.426;15.352;2023-02-21T06:58:08;2.90;;;0.88;;
77798;SDS011;66989;50.426;15.352;2023-02-21T07:00:34;2.78;;;1.58;;
77798;SDS011;66989;50.426;15.352;2023-02-21T07:03:00;2.53;;;1.33;;
77798;SDS011;66989;50.426;15.352;2023-02-21T07:05:25;5.45;;;1.20;;
77798;SDS011;66989;50.426;15.352;2023-02-21T07:07:51;3.45;;;1.20;;
77798;SDS011;66989;50.426;15.352;2023-02-21T07:10:16;4.18;;;1.08;;
77798;SDS011;66989;50.426;15.352;2023-02-21T07:12:42;2.03;;;0.70;;
77798;SDS011;66989;50.426;15.352;2023-02-21T07:15:07;4.88;;;0.82;;
77798;SDS011;66989;50.426;15.352;2023-02-21T07:17:33;2.55;;;1.70;;
77798;SDS011;66989;50.426;15.352;2023-02-21T07:19:58;2.92;;;1.15;;
77798;SDS011;66989;50.426;15.352;2023-02-21T07:22:23;2.00;;;0.75;;
77798;SDS011;66989;50.426;15.352;2023-02-21T07:24:53;2.15;;;0.80;;
77798;SDS011;66989;50.426;15.352;2023-02-21T07:27:20;1.98;;;1.80;;
77798;SDS011;66989;50.426;15.352;2023-02-21T07:29:49;2.47;;;1.35;;
77798;SDS011;66989;50.426;15.352;2023-02-21T07:32:15;2.03;;;0.70;;
77798;SDS011;66989;50.426;15.352;2023-02-21T07:34:44;2.30;;;1.17;;
77798;SDS011;66989;50.426;15.352;2023-02-21T07:37:10;2.75;;;1.17;;
77798;SDS011;66989;50.426;15.352;2023-02-21T07:39:35;3.13;;;1.23;;
77798;SDS011;66989;50.426;15.352;2023-02-21T07:42:03;3.15;;;1.27;;
77798;SDS011;66989;50.426;15.352;2023-02-21T07:44:29;2.45;;;1.15;;
77798;SDS011;66989;50.426;15.352;2023-02-21T07:46:55;1.95;;;0.68;;
77798;SDS011;66989;50.426;15.352;2023-02-21T07:49:24;3.90;;;1.50;;
77798;SDS011;66989;50.426;15.352;2023-02-21T07:51:49;2.42;;;1.17;;
77798;SDS011;66989;50.426;15.352;2023-02-21T07:54:15;2.40;;;0.98;;
77798;SDS011;66989;50.426;15.352;2023-02-21T07:56:42;2.28;;;1.45;;
77798;SDS011;66989;50.426;15.352;2023-02-21T07:59:09;2.88;;;1.50;;
77798;SDS011;66989;50.426;15.352;2023-02-21T08:01:34;2.67;;;0.98;;
77798;SDS011;66989;50.426;15.352;2023-02-21T08:04:00;4.53;;;2.03;;
77798;SDS011;66989;50.426;15.352;2023-02-21T08:06:25;3.15;;;1.25;;
77798;SDS011;66989;50.426;15.352;2023-02-21T08:08:51;2.15;;;1.38;;
77798;SDS011;66989;50.426;15.352;2023-02-21T08:11:16;2.65;;;1.25;;
77798;SDS011;66989;50.426;15.352;2023-02-21T08:13:41;4.32;;;1.60;;
77798;SDS011;66989;50.426;15.352;2023-02-21T08:16:08;2.65;;;1.42;;
77798;SDS011;66989;50.426;15.352;2023-02-21T08:18:42;5.15;;;2.33;;
77798;SDS011;66989;50.426;15.352;2023-02-21T08:21:22;2.33;;;1.20;;
77798;SDS011;66989;50.426;15.352;2023-02-21T08:23:47;4.05;;;1.23;;
77798;SDS011;66989;50.426;15.352;2023-02-21T08:26:13;2.53;;;1.60;;
77798;SDS011;66989;50.426;15.352;2023-02-21T08:28:38;4.70;;;2.03;;
77798;SDS011;66989;50.426;15.352;2023-02-21T08:31:03;4.13;;;1.80;;
77798;SDS011;66989;50.426;15.352;2023-02-21T08:33:29;2.35;;;1.23;;
77798;SDS011;66989;50.426;15.352;2023-02-21T08:35:54;3.58;;;1.60;;
77798;SDS011;66989;50.426;15.352;2023-02-21T08:38:20;3.55;;;1.85;;
77798;SDS011;66989;50.426;15.352;2023-02-21T08:40:46;3.75;;;1.52;;
77798;SDS011;66989;50.426;15.352;2023-02-21T08:43:11;7.50;;;4.72;;
77798;SDS011;66989;50.426;15.352;2023-02-21T08:45:36;4.78;;;2.53;;
77798;SDS011;66989;50.426;15.352;2023-02-21T08:48:02;3.30;;;1.50;;
77798;SDS011;66989;50.426;15.352;2023-02-21T08:50:28;6.18;;;2.92;;
77798;SDS011;66989;50.426;15.352;2023-02-21T08:52:54;2.78;;;1.65;;
77798;SDS011;66989;50.426;15.352;2023-02-21T08:55:20;4.82;;;1.92;;
77798;SDS011;66989;50.426;15.352;2023-02-21T08:57:47;3.00;;;1.52;;
77798;SDS011;66989;50.426;15.352;2023-02-21T09:00:15;3.35;;;1.13;;
77798;SDS011;66989;50.426;15.352;2023-02-21T09:02:41;3.33;;;1.52;;
77798;SDS011;66989;50.426;15.352;2023-02-21T09:05:11;3.25;;;1.58;;
77798;SDS011;66989;50.426;15.352;2023-02-21T09:07:48;3.75;;;2.25;;
77798;SDS011;66989;50.426;15.352;2023-02-21T09:10:15;2.55;;;1.45;;
77798;SDS011;66989;50.426;15.352;2023-02-21T09:12:42;3.50;;;1.65;;
77798;SDS011;66989;50.426;15.352;2023-02-21T09:15:08;3.88;;;1.50;;
77798;SDS011;66989;50.426;15.352;2023-02-21T09:17:34;2.67;;;1.20;;
77798;SDS011;66989;50.426;15.352;2023-02-21T09:20:00;4.82;;;1.83;;
77798;SDS011;66989;50.426;15.352;2023-02-21T09:22:29;3.83;;;1.85;;
77798;SDS011;66989;50.426;15.352;2023-02-21T09:24:55;2.40;;;1.27;;
77798;SDS011;66989;50.426;15.352;2023-02-21T09:27:21;4.38;;;2.20;;
77798;SDS011;66989;50.426;15.352;2023-02-21T09:30:00;2.65;;;1.02;;
77798;SDS011;66989;50.426;15.352;2023-02-21T09:32:30;3.55;;;1.38;;
77798;SDS011;66989;50.426;15.352;2023-02-21T09:34:56;2.20;;;1.02;;
77798;SDS011;66989;50.426;15.352;2023-02-21T09:37:21;1.80;;;0.82;;
77798;SDS011;66989;50.426;15.352;2023-02-21T09:39:46;2.73;;;1.30;;
77798;SDS011;66989;50.426;15.352;2023-02-21T09:42:13;2.03;;;1.23;;
77798;SDS011;66989;50.426;15.352;2023-02-21T09:44:43;3.38;;;0.70;;
77798;SDS011;66989;50.426;15.352;2023-02-21T09:47:12;1.95;;;0.77;;
77798;SDS011;66989;50.426;15.352;2023-02-21T09:50:03;4.28;;;1.58;;
77798;SDS011;66989;50.426;15.352;2023-02-21T09:52:36;1.85;;;0.73;;
77798;SDS011;66989;50.426;15.352;2023-02-21T09:57:58;2.50;;;1.02;;
77798;SDS011;66989;50.426;15.352;2023-02-21T10:00:25;2.22;;;0.80;;
77798;SDS011;66989;50.426;15.352;2023-02-21T10:05:41;9.13;;;3.03;;
77798;SDS011;66989;50.426;15.352;2023-02-21T10:11:06;4.60;;;2.53;;
77798;SDS011;66989;50.426;15.352;2023-02-21T10:13:58;2.67;;;0.82;;
77798;SDS011;66989;50.426;15.352;2023-02-21T10:16:33;2.75;;;1.08;;
77798;SDS011;66989;50.426;15.352;2023-02-21T10:21:55;2.47;;;1.05;;
77798;SDS011;66989;50.426;15.352;2023-02-21T10:24:24;1.52;;;0.52;;
77798;SDS011;66989;50.426;15.352;2023-02-21T10:26:52;2.35;;;1.42;;
77798;SDS011;66989;50.426;15.352;2023-02-21T10:29:26;2.80;;;1.75;;
77798;SDS011;66989;50.426;15.352;2023-02-21T10:32:02;2.45;;;1.85;;
77798;SDS011;66989;50.426;15.352;2023-02-21T10:34:29;1.83;;;0.68;;
77798;SDS011;66989;50.426;15.352;2023-02-21T10:36:57;1.92;;;0.77;;
77798;SDS011;66989;50.426;15.352;2023-02-21T10:39:38;2.75;;;0.93;;
77798;SDS011;66989;50.426;15.352;2023-02-21T10:42:17;2.63;;;1.17;;
77798;SDS011;66989;50.426;15.352;2023-02-21T10:45:09;2.38;;;0.80;;
77798;SDS011;66989;50.426;15.352;2023-02-21T10:50:48;1.88;;;0.80;;
77798;SDS011;66989;50.426;15.352;2023-02-21T10:53:35;1.42;;;0.52;;
77798;SDS011;66989;50.426;15.352;2023-02-21T10:58:45;2.03;;;0.70;;
77798;SDS011;66989;50.426;15.352;2023-02-21T11:03:56;1.52;;;0.95;;
77798;SDS011;66989;50.426;15.352;2023-02-21T11:06:38;4.03;;;0.45;;
77798;SDS011;66989;50.426;15.352;2023-02-21T11:14:47;1.80;;;0.50;;
77798;SDS011;66989;50.426;15.352;2023-02-21T11:17:40;0.93;;;0.50;;
77798;SDS011;66989;50.426;15.352;2023-02-21T11:22:39;1.67;;;0.65;;
77798;SDS011;66989;50.426;15.352;2023-02-21T11:31:01;1.58;;;0.40;;
77798;SDS011;66989;50.426;15.352;2023-02-21T11:33:25;1.42;;;0.45;;
77798;SDS011;66989;50.426;15.352;2023-02-21T11:35:53;1.08;;;0.82;;
77798;SDS011;66989;50.426;15.352;2023-02-21T11:38:34;1.90;;;0.40;;
77798;SDS011;66989;50.426;15.352;2023-02-21T11:41:21;1.83;;;0.50;;
77798;SDS011;66989;50.426;15.352;2023-02-21T11:43:55;4.22;;;2.35;;
77798;SDS011;66989;50.426;15.352;2023-02-21T11:49:00;2.45;;;1.90;;
77798;SDS011;66989;50.426;15.352;2023-02-21T11:51:45;5.20;;;3.13;;
77798;SDS011;66989;50.426;15.352;2023-02-21T11:54:13;2.50;;;1.25;;
77798;SDS011;66989;50.426;15.352;2023-02-21T11:59:23;3.97;;;2.20;;
77798;SDS011;66989;50.426;15.352;2023-02-21T12:35:20;3.88;;;3.25;;
77798;SDS011;66989;50.426;15.352;2023-02-21T12:43:26;3.40;;;1.83;;
77798;SDS011;66989;50.426;15.352;2023-02-21T12:51:45;3.40;;;1.42;;
77798;SDS011;66989;50.426;15.352;2023-02-21T12:54:38;4.00;;;1.80;;
77798;SDS011;66989;50.426;15.352;2023-02-21T12:57:15;7.38;;;2.33;;
77798;SDS011;66989;50.426;15.352;2023-02-21T13:05:39;4.45;;;1.73;;
77798;SDS011;66989;50.426;15.352;2023-02-21T13:08:15;3.55;;;1.45;;
77798;SDS011;66989;50.426;15.352;2023-02-21T13:10:57;2.63;;;1.55;;
77798;SDS011;66989;50.426;15.352;2023-02-21T13:14:03;2.63;;;1.27;;
77798;SDS011;66989;50.426;15.352;2023-02-21T13:16:35;8.90;;;4.20;;
77798;SDS011;66989;50.426;15.352;2023-02-21T13:19:02;7.00;;;2.90;;
77798;SDS011;66989;50.426;15.352;2023-02-21T13:30:02;0.75;;;0.10;;
77798;SDS011;66989;50.426;15.352;2023-02-21T13:32:37;0.98;;;0.60;;
77798;SDS011;66989;50.426;15.352;2023-02-21T13:35:04;1.35;;;0.50;;
77798;SDS011;66989;50.426;15.352;2023-02-21T13:37:33;2.47;;;0.50;;
77798;SDS011;66989;50.426;15.352;2023-02-21T13:40:15;1.05;;;0.50;;
77798;SDS011;66989;50.426;15.352;2023-02-21T13:42:47;1.20;;;0.70;;
77798;SDS011;66989;50.426;15.352;2023-02-21T13:45:23;1.30;;;0.43;;
77798;SDS011;66989;50.426;15.352;2023-02-21T13:50:44;1.77;;;0.55;;
77798;SDS011;66989;50.426;15.352;2023-02-21T13:53:29;2.78;;;1.13;;
77798;SDS011;66989;50.426;15.352;2023-02-21T14:03:53;4.05;;;1.40;;
77798;SDS011;66989;50.426;15.352;2023-02-21T14:06:31;1.75;;;0.80;;
77798;SDS011;66989;50.426;15.352;2023-02-21T14:08:59;2.72;;;1.15;;
77798;SDS011;66989;50.426;15.352;2023-02-21T14:11:33;1.55;;;0.77;;
77798;SDS011;66989;50.426;15.352;2023-02-21T14:14:02;3.25;;;1.50;;
77798;SDS011;66989;50.426;15.352;2023-02-21T14:16:32;2.55;;;1.05;;
77798;SDS011;66989;50.426;15.352;2023-02-21T14:19:11;1.33;;;0.73;;
77798;SDS011;66989;50.426;15.352;2023-02-21T14:21:50;1.77;;;0.55;;
77798;SDS011;66989;50.426;15.352;2023-02-21T14:24:24;1.20;;;0.47;;
77798;SDS011;66989;50.426;15.352;2023-02-21T14:26:55;2.20;;;0.80;;
77798;SDS011;66989;50.426;15.352;2023-02-21T14:32:40;1.20;;;0.55;;
77798;SDS011;66989;50.426;15.352;2023-02-21T14:35:19;2.55;;;0.63;;
77798;SDS011;66989;50.426;15.352;2023-02-21T14:37:51;1.80;;;0.60;;
77798;SDS011;66989;50.426;15.352;2023-02-21T15:09:40;3.60;;;1.70;;
77798;SDS011;66989;50.426;15.352;2023-02-21T15:12:07;2.38;;;1.65;;
77798;SDS011;66989;50.426;15.352;2023-02-21T15:14:39;2.55;;;1.35;;
77798;SDS011;66989;50.426;15.352;2023-02-21T15:17:13;2.70;;;1.33;;
77798;SDS011;66989;50.426;15.352;2023-02-21T15:19:43;3.60;;;1.30;;
77798;SDS011;66989;50.426;15.352;2023-02-21T15:22:21;2.15;;;0.77;;
77798;SDS011;66989;50.426;15.352;2023-02-21T15:27:33;2.60;;;1.42;;
77798;SDS011;66989;50.426;15.352;2023-02-21T15:30:07;3.25;;;1.63;;
77798;SDS011;66989;50.426;15.352;2023-02-21T15:32:38;2.65;;;1.27;;
77798;SDS011;66989;50.426;15.352;2023-02-21T15:35:04;4.45;;;1.67;;
77798;SDS011;66989;50.426;15.352;2023-02-21T15:37:36;2.83;;;1.08;;
77798;SDS011;66989;50.426;15.352;2023-02-21T15:40:12;2.25;;;1.13;;
77798;SDS011;66989;50.426;15.352;2023-02-21T15:42:41;3.13;;;1.10;;
77798;SDS011;66989;50.426;15.352;2023-02-21T15:45:20;2.65;;;1.10;;
77798;SDS011;66989;50.426;15.352;2023-02-21T15:47:49;3.38;;;1.10;;
77798;SDS011;66989;50.426;15.352;2023-02-21T15:50:17;1.40;;;0.75;;
77798;SDS011;66989;50.426;15.352;2023-02-21T15:52:49;2.80;;;1.52;;
77798;SDS011;66989;50.426;15.352;2023-02-21T15:57:43;3.28;;;0.95;;
77798;SDS011;66989;50.426;15.352;2023-02-21T16:00:25;3.80;;;1.55;;
77798;SDS011;66989;50.426;15.352;2023-02-21T16:03:40;2.33;;;1.33;;
77798;SDS011;66989;50.426;15.352;2023-02-21T16:09:03;2.40;;;1.15;;
77798;SDS011;66989;50.426;15.352;2023-02-21T16:19:47;1.73;;;1.27;;
77798;SDS011;66989;50.426;15.352;2023-02-21T16:22:33;1.58;;;1.13;;
77798;SDS011;66989;50.426;15.352;2023-02-21T16:25:12;3.42;;;1.17;;
77798;SDS011;66989;50.426;15.352;2023-02-21T16:27:46;2.40;;;1.23;;
77798;SDS011;66989;50.426;15.352;2023-02-21T16:30:16;2.58;;;1.13;;
77798;SDS011;66989;50.426;15.352;2023-02-21T16:32:45;3.22;;;1.33;;
77798;SDS011;66989;50.426;15.352;2023-02-21T16:35:19;3.95;;;1.73;;
77798;SDS011;66989;50.426;15.352;2023-02-21T16:37:48;3.88;;;1.35;;
77798;SDS011;66989;50.426;15.352;2023-02-21T16:40:20;3.58;;;1.63;;
77798;SDS011;66989;50.426;15.352;2023-02-21T16:42:49;4.63;;;1.88;;
77798;SDS011;66989;50.426;15.352;2023-02-21T16:45:15;3.45;;;1.98;;
77798;SDS011;66989;50.426;15.352;2023-02-21T16:47:41;3.55;;;2.03;;
77798;SDS011;66989;50.426;15.352;2023-02-21T16:50:17;4.40;;;1.58;;
77798;SDS011;66989;50.426;15.352;2023-02-21T16:52:45;3.20;;;1.60;;
77798;SDS011;66989;50.426;15.352;2023-02-21T16:55:15;3.08;;;1.45;;
77798;SDS011;66989;50.426;15.352;2023-02-21T16:57:41;5.68;;;1.60;;
77798;SDS011;66989;50.426;15.352;2023-02-21T17:00:11;7.82;;;4.47;;
77798;SDS011;66989;50.426;15.352;2023-02-21T17:02:36;3.92;;;1.52;;
77798;SDS011;66989;50.426;15.352;2023-02-21T17:05:02;4.65;;;2.28;;
77798;SDS011;66989;50.426;15.352;2023-02-21T17:07:27;4.87;;;2.63;;
77798;SDS011;66989;50.426;15.352;2023-02-21T17:09:52;8.48;;;3.22;;
77798;SDS011;66989;50.426;15.352;2023-02-21T17:12:18;5.77;;;2.70;;
77798;SDS011;66989;50.426;15.352;2023-02-21T17:14:43;11.40;;;3.72;;
77798;SDS011;66989;50.426;15.352;2023-02-21T17:17:09;7.28;;;2.67;;
77798;SDS011;66989;50.426;15.352;2023-02-21T17:19:34;9.27;;;3.22;;
77798;SDS011;66989;50.426;15.352;2023-02-21T17:21:59;7.80;;;3.55;;
77798;SDS011;66989;50.426;15.352;2023-02-21T17:24:25;5.65;;;2.45;;
77798;SDS011;66989;50.426;15.352;2023-02-21T17:26:51;13.23;;;5.45;;
77798;SDS011;66989;50.426;15.352;2023-02-21T17:31:43;4.05;;;1.98;;
77798;SDS011;66989;50.426;15.352;2023-02-21T17:34:10;2.88;;;1.75;;
77798;SDS011;66989;50.426;15.352;2023-02-21T17:36:37;3.33;;;2.03;;
77798;SDS011;66989;50.426;15.352;2023-02-21T17:39:03;4.85;;;1.95;;
77798;SDS011;66989;50.426;15.352;2023-02-21T17:41:30;6.78;;;2.95;;
77798;SDS011;66989;50.426;15.352;2023-02-21T17:43:55;6.20;;;3.00;;
77798;SDS011;66989;50.426;15.352;2023-02-21T17:46:21;3.88;;;2.00;;
77798;SDS011;66989;50.426;15.352;2023-02-21T17:48:46;4.38;;;2.35;;
77798;SDS011;66989;50.426;15.352;2023-02-21T17:51:16;5.18;;;2.90;;
77798;SDS011;66989;50.426;15.352;2023-02-21T17:53:43;14.30;;;5.35;;
77798;SDS011;66989;50.426;15.352;2023-02-21T17:56:08;5.75;;;3.72;;
77798;SDS011;66989;50.426;15.352;2023-02-21T17:58:34;4.78;;;2.35;;
77798;SDS011;66989;50.426;15.352;2023-02-21T18:00:59;8.27;;;4.07;;
77798;SDS011;66989;50.426;15.352;2023-02-21T18:03:24;7.53;;;3.50;;
77798;SDS011;66989;50.426;15.352;2023-02-21T18:05:53;13.93;;;5.47;;
77798;SDS011;66989;50.426;15.352;2023-02-21T18:08:18;13.00;;;5.55;;
77798;SDS011;66989;50.426;15.352;2023-02-21T18:10:44;21.88;;;9.85;;
77798;SDS011;66989;50.426;15.352;2023-02-21T18:13:13;14.75;;;7.63;;
77798;SDS011;66989;50.426;15.352;2023-02-21T18:15:43;23.67;;;9.93;;
77798;SDS011;66989;50.426;15.352;2023-02-21T18:18:09;19.67;;;8.00;;
77798;SDS011;66989;50.426;15.352;2023-02-21T18:20:34;17.80;;;6.65;;